| time (UTC) | temp F | wind direction | speed MPH | gust MPH | rain 1hr in | rain 24hr in | rain mn in | humidity % | barometer mb |
| 20260506201604 | 45 | 304 | 1.0 | 4.0 | 0.01 | 1.11 | 0.95 | 95 | 1005.2 |
| 20260506201039 | 45 | 0 | 1.0 | 4.0 | 0.01 | 1.11 | 0.95 | 95 | 1005.2 |
| 20260506200536 | 45 | 0 | 1.0 | 3.0 | 0.01 | 1.11 | 0.95 | 95 | 1005.2 |
| 20260506200044 | 45 | 292 | 0.0 | 4.0 | 0.02 | 1.11 | 0.95 | 95 | 1005.2 |
| 20260506195536 | 45 | 0 | 1.0 | 4.0 | 0.02 | 1.11 | 0.95 | 95 | 1005.3 |
| 20260506195039 | 45 | 308 | 0.0 | 3.0 | 0.01 | 1.10 | 0.94 | 95 | 1005.2 |
| 20260506194553 | 45 | 286 | 0.0 | 4.0 | 0.01 | 1.10 | 0.94 | 95 | 1005.2 |
| 20260506194036 | 45 | 0 | 0.0 | 5.0 | 0.02 | 1.10 | 0.94 | 95 | 1005.2 |
| 20260506193535 | 45 | 0 | 1.0 | 5.0 | 0.03 | 1.10 | 0.94 | 95 | 1005.2 |
| 20260506193051 | 45 | 21 | 1.0 | 5.0 | 0.04 | 1.10 | 0.94 | 95 | 1005.3 |
| 20260506192536 | 45 | 327 | 1.0 | 5.0 | 0.04 | 1.10 | 0.94 | 95 | 1005.4 |
| 20260506192038 | 45 | 335 | 0.0 | 3.0 | 0.05 | 1.10 | 0.94 | 95 | 1005.3 |
| 20260506191543 | 45 | 309 | 0.0 | 4.0 | 0.05 | 1.10 | 0.94 | 95 | 1005.2 |
| 20260506191037 | 45 | 340 | 1.0 | 4.0 | 0.06 | 1.10 | 0.94 | 95 | 1005.3 |
| 20260506190535 | 45 | 9 | 0.0 | 4.0 | 0.06 | 1.10 | 0.94 | 95 | 1005.4 |
| 20260506190045 | 45 | 273 | 0.0 | 4.0 | 0.06 | 1.09 | 0.93 | 95 | 1005.6 |
| 20260506185536 | 45 | 336 | 0.0 | 3.0 | 0.08 | 1.09 | 0.93 | 95 | 1005.6 |
| 20260506185036 | 44 | 0 | 1.0 | 3.0 | 0.10 | 1.09 | 0.93 | 95 | 1005.6 |
| 20260506184550 | 44 | 0 | 1.0 | 3.0 | 0.12 | 1.09 | 0.93 | 95 | 1005.8 |
| 20260506184036 | 45 | 55 | 1.0 | 5.0 | 0.12 | 1.08 | 0.92 | 95 | 1005.6 |
| 20260506183539 | 45 | 0 | 1.0 | 5.0 | 0.12 | 1.07 | 0.91 | 95 | 1005.5 |
| 20260506183047 | 45 | 274 | 1.0 | 5.0 | 0.12 | 1.05 | 0.90 | 95 | 1005.6 |
| 20260506182535 | 45 | 0 | 0.0 | 3.0 | 0.13 | 1.05 | 0.90 | 95 | 1005.7 |
| 20260506182035 | 45 | 0 | 0.0 | 3.0 | 0.13 | 1.04 | 0.89 | 95 | 1005.7 |
| 20260506181545 | 45 | 0 | 0.0 | 6.0 | 0.13 | 1.04 | 0.89 | 95 | 1005.7 |
| 20260506181036 | 45 | 0 | 0.0 | 6.0 | 0.13 | 1.04 | 0.88 | 95 | 1005.9 |
| 20260506180537 | 46 | 0 | 0.0 | 2.0 | 0.15 | 1.04 | 0.88 | 95 | 1006.0 |
| 20260506180048 | 45 | 153 | 0.0 | 4.0 | 0.17 | 1.03 | 0.87 | 95 | 1006.1 |
| 20260506175536 | 45 | 0 | 0.0 | 4.0 | 0.18 | 1.01 | 0.85 | 95 | 1006.1 |
| 20260506175036 | 46 | 42 | 0.0 | 5.0 | 0.17 | 0.99 | 0.83 | 95 | 1006.1 |
| 20260506174545 | 46 | 0 | 1.0 | 6.0 | 0.17 | 0.97 | 0.81 | 95 | 1006.2 |
| 20260506174036 | 46 | 294 | 0.0 | 6.0 | 0.17 | 0.96 | 0.80 | 95 | 1006.3 |
| 20260506173538 | 47 | 319 | 1.0 | 6.0 | 0.16 | 0.95 | 0.79 | 95 | 1006.3 |
| 20260506173100 | 48 | 326 | 0.0 | 4.0 | 0.16 | 0.94 | 0.78 | 96 | 1006.3 |
| 20260506172537 | 48 | 5 | 0.0 | 4.0 | 0.16 | 0.93 | 0.77 | 96 | 1006.1 |
| 20260506172036 | 48 | 61 | 0.0 | 3.0 | 0.16 | 0.92 | 0.76 | 96 | 1006.0 |
| 20260506171553 | 48 | 352 | 0.0 | 3.0 | 0.16 | 0.92 | 0.76 | 96 | 1006.0 |
| 20260506171036 | 48 | 0 | 0.0 | 5.0 | 0.15 | 0.90 | 0.74 | 96 | 1006.1 |
| 20260506170537 | 48 | 0 | 1.0 | 5.0 | 0.15 | 0.89 | 0.73 | 96 | 1006.1 |
| 20260506170045 | 48 | 0 | 2.0 | 5.0 | 0.12 | 0.86 | 0.70 | 96 | 1006.0 |
| 20260506165540 | 48 | 309 | 0.0 | 2.0 | 0.10 | 0.83 | 0.67 | 96 | 1005.8 |
| 20260506165037 | 47 | 0 | 0.0 | 2.0 | 0.09 | 0.81 | 0.65 | 95 | 1005.7 |
| 20260506164547 | 48 | 0 | 0.0 | 2.0 | 0.08 | 0.80 | 0.64 | 96 | 1005.6 |
| 20260506164038 | 47 | 53 | 0.0 | 1.0 | 0.08 | 0.79 | 0.63 | 96 | 1005.7 |
| 20260506163535 | 47 | 0 | 0.0 | 2.0 | 0.08 | 0.79 | 0.63 | 96 | 1005.9 |
| 20260506163100 | 47 | 0 | 0.0 | 2.0 | 0.08 | 0.78 | 0.62 | 95 | 1005.9 |
| 20260506162535 | 47 | 0 | 0.0 | 1.0 | 0.08 | 0.77 | 0.61 | 96 | 1006.0 |
| 20260506162039 | 47 | 0 | 0.0 | 1.0 | 0.07 | 0.76 | 0.60 | 96 | 1006.0 |
| 20260506161546 | 47 | 0 | 0.0 | 2.0 | 0.07 | 0.75 | 0.58 | 96 | 1006.1 |
| 20260506161037 | 47 | 71 | 0.0 | 3.0 | 0.07 | 0.75 | 0.58 | 95 | 1006.1 |
| 20260506160535 | 47 | 0 | 0.0 | 3.0 | 0.07 | 0.74 | 0.58 | 95 | 1006.1 |
| 20260506160049 | 47 | 0 | 0.0 | 2.0 | 0.06 | 0.73 | 0.57 | 95 | 1006.1 |
| 20260506155536 | 48 | 0 | 0.0 | 2.0 | 0.07 | 0.73 | 0.57 | 96 | 1006.4 |
| 20260506155036 | 47 | 0 | 0.0 | 2.0 | 0.07 | 0.72 | 0.56 | 95 | 1006.5 |
| 20260506154552 | 48 | 0 | 0.0 | 2.0 | 0.07 | 0.72 | 0.56 | 96 | 1006.5 |
| 20260506154036 | 48 | 0 | 0.0 | 2.0 | 0.07 | 0.71 | 0.55 | 96 | 1006.5 |
| 20260506153536 | 48 | 0 | 0.0 | 2.0 | 0.07 | 0.71 | 0.55 | 96 | 1006.6 |
| 20260506153048 | 48 | 0 | 0.0 | 2.0 | 0.07 | 0.70 | 0.54 | 95 | 1006.8 |
| 20260506152536 | 48 | 308 | 0.0 | 2.0 | 0.06 | 0.69 | 0.52 | 96 | 1006.9 |
| 20260506152037 | 47 | 0 | 0.0 | 2.0 | 0.07 | 0.69 | 0.52 | 95 | 1007.1 |
| 20260506151549 | 47 | 0 | 0.0 | 1.0 | 0.07 | 0.68 | 0.52 | 95 | 1007.0 |
| 20260506151035 | 47 | 0 | 0.0 | 2.0 | 0.08 | 0.68 | 0.52 | 95 | 1007.0 |
| 20260506150535 | 47 | 0 | 0.0 | 2.0 | 0.07 | 0.67 | 0.51 | 95 | 1007.0 |
| 20260506150055 | 47 | 0 | 0.0 | 2.0 | 0.08 | 0.67 | 0.51 | 96 | 1007.0 |
| 20260506145539 | 47 | 0 | 0.0 | 3.0 | 0.07 | 0.66 | 0.50 | 95 | 1007.1 |
| 20260506145039 | 47 | 0 | 0.0 | 4.0 | 0.07 | 0.65 | 0.49 | 95 | 1007.2 |
| 20260506144545 | 47 | 0 | 0.0 | 4.0 | 0.07 | 0.65 | 0.49 | 95 | 1007.3 |
| 20260506144036 | 47 | 343 | 0.0 | 3.0 | 0.07 | 0.64 | 0.48 | 95 | 1007.1 |
| 20260506143537 | 47 | 328 | 0.0 | 3.0 | 0.07 | 0.64 | 0.48 | 95 | 1007.2 |
| 20260506143047 | 48 | 0 | 0.0 | 3.0 | 0.07 | 0.63 | 0.47 | 95 | 1007.1 |
| 20260506142534 | 48 | 0 | 0.0 | 3.0 | 0.08 | 0.63 | 0.47 | 95 | 1007.3 |
| 20260506142039 | 48 | 0 | 0.0 | 3.0 | 0.07 | 0.62 | 0.46 | 95 | 1006.9 |
| 20260506141548 | 48 | 0 | 0.0 | 3.0 | 0.07 | 0.61 | 0.45 | 95 | 1007.2 |
| 20260506141037 | 48 | 0 | 0.0 | 3.0 | 0.07 | 0.60 | 0.44 | 95 | 1007.8 |
| 20260506140537 | 48 | 328 | 1.0 | 3.0 | 0.07 | 0.58 | 0.43 | 95 | 1007.8 |
| 20260506140059 | 48 | 323 | 0.0 | 8.0 | 0.08 | 0.58 | 0.43 | 96 | 1007.6 |
| 20260506135537 | 48 | 54 | 0.0 | 8.0 | 0.08 | 0.58 | 0.43 | 95 | 1007.4 |
| 20260506135036 | 48 | 348 | 2.0 | 3.0 | 0.08 | 0.58 | 0.42 | 95 | 1007.1 |
| 20260506134548 | 48 | 296 | 0.0 | 3.0 | 0.08 | 0.58 | 0.42 | 95 | 1007.5 |
| 20260506134037 | 48 | 22 | 0.0 | 3.0 | 0.07 | 0.57 | 0.41 | 95 | 1007.3 |
| 20260506133538 | 48 | 323 | 0.0 | 2.0 | 0.07 | 0.57 | 0.41 | 95 | 1007.2 |
| 20260506133043 | 48 | 360 | 0.0 | 3.0 | 0.07 | 0.56 | 0.40 | 95 | 1007.3 |
| 20260506132536 | 49 | 0 | 0.0 | 5.0 | 0.06 | 0.55 | 0.39 | 95 | 1007.6 |
| 20260506132037 | 49 | 11 | 1.0 | 5.0 | 0.06 | 0.55 | 0.39 | 95 | 1007.5 |
| 20260506131548 | 49 | 0 | 0.0 | 3.0 | 0.05 | 0.54 | 0.38 | 95 | 1007.7 |
| 20260506131039 | 49 | 0 | 0.0 | 3.0 | 0.04 | 0.52 | 0.37 | 95 | 1007.8 |
| 20260506130538 | 49 | 29 | 0.0 | 4.0 | 0.03 | 0.52 | 0.36 | 95 | 1007.9 |
| 20260506130054 | 49 | 0 | 0.0 | 4.0 | 0.02 | 0.51 | 0.35 | 95 | 1007.8 |
| 20260506125537 | 49 | 0 | 0.0 | 4.0 | 0.02 | 0.51 | 0.35 | 95 | 1007.8 |
| 20260506125037 | 49 | 29 | 0.0 | 2.0 | 0.01 | 0.50 | 0.34 | 95 | 1008.1 |
| 20260506124545 | 49 | 29 | 0.0 | 2.0 | 0.01 | 0.50 | 0.34 | 96 | 1008.0 |
| 20260506124036 | 49 | 0 | 0.0 | 2.0 | 0.01 | 0.50 | 0.34 | 96 | 1007.9 |
| 20260506123537 | 50 | 0 | 0.0 | 2.0 | 0.01 | 0.50 | 0.34 | 96 | 1008.0 |
| 20260506123043 | 50 | 0 | 0.0 | 2.0 | 0.00 | 0.49 | 0.33 | 95 | 1008.0 |
| 20260506122537 | 50 | 0 | 0.0 | 0.0 | 0.00 | 0.49 | 0.33 | 96 | 1007.9 |
| 20260506122036 | 50 | 0 | 0.0 | 1.0 | 0.00 | 0.49 | 0.33 | 96 | 1008.0 |
| 20260506121547 | 50 | 0 | 0.0 | 1.0 | 0.00 | 0.49 | 0.33 | 96 | 1007.9 |
| 20260506121036 | 50 | 0 | 0.0 | 1.0 | 0.00 | 0.49 | 0.33 | 96 | 1007.8 |
| 20260506120537 | 50 | 0 | 0.0 | 1.0 | 0.00 | 0.49 | 0.33 | 96 | 1007.8 |
| 20260506120106 | 50 | 0 | 0.0 | 1.0 | 0.00 | 0.49 | 0.33 | 96 | 1007.7 |
| 20260506115536 | 50 | 0 | 0.0 | 2.0 | 0.00 | 0.49 | 0.33 | 96 | 1007.8 |
| 20260506115036 | 50 | 0 | 0.0 | 2.0 | 0.00 | 0.49 | 0.33 | 96 | 1007.8 |
| 20260506114558 | 50 | 0 | 0.0 | 2.0 | 0.00 | 0.49 | 0.33 | 96 | 1007.7 |
| 20260506114039 | 50 | 0 | 0.0 | 2.0 | 0.00 | 0.49 | 0.33 | 96 | 1007.8 |
| 20260506113537 | 50 | 0 | 0.0 | 3.0 | 0.00 | 0.49 | 0.33 | 96 | 1007.7 |
| 20260506113045 | 50 | 0 | 0.0 | 3.0 | 0.00 | 0.49 | 0.33 | 96 | 1007.7 |
| 20260506112537 | 50 | 0 | 0.0 | 3.0 | 0.00 | 0.49 | 0.33 | 96 | 1007.7 |
| 20260506112037 | 50 | 0 | 0.0 | 2.0 | 0.00 | 0.49 | 0.33 | 96 | 1007.7 |
| 20260506111552 | 50 | 301 | 0.0 | 1.0 | 0.00 | 0.49 | 0.33 | 96 | 1007.7 |
| 20260506111038 | 50 | 0 | 0.0 | 0.0 | 0.00 | 0.49 | 0.33 | 96 | 1007.8 |
| 20260506110537 | 50 | 0 | 0.0 | 0.0 | 0.00 | 0.49 | 0.33 | 96 | 1007.7 |
| 20260506110050 | 50 | 0 | 0.0 | 0.0 | 0.00 | 0.49 | 0.33 | 96 | 1008.0 |
| 20260506105539 | 50 | 0 | 0.0 | 0.0 | 0.00 | 0.49 | 0.33 | 96 | 1007.8 |
| 20260506105037 | 50 | 0 | 0.0 | 0.0 | 0.00 | 0.49 | 0.33 | 96 | 1008.0 |
| 20260506104547 | 50 | 0 | 0.0 | 0.0 | 0.00 | 0.49 | 0.33 | 96 | 1008.1 |
| 20260506104037 | 50 | 0 | 0.0 | 2.0 | 0.00 | 0.49 | 0.33 | 96 | 1007.9 |
| 20260506103537 | 50 | 0 | 0.0 | 2.0 | 0.00 | 0.49 | 0.33 | 96 | 1007.8 |
| 20260506103044 | 50 | 85 | 0.0 | 2.0 | 0.00 | 0.49 | 0.33 | 96 | 1007.9 |
| 20260506102537 | 50 | 0 | 0.0 | 0.0 | 0.00 | 0.49 | 0.33 | 96 | 1008.3 |
| 20260506102036 | 50 | 0 | 0.0 | 0.0 | 0.00 | 0.49 | 0.33 | 96 | 1008.3 |
| 20260506101549 | 50 | 0 | 0.0 | 0.0 | 0.00 | 0.49 | 0.33 | 96 | 1008.2 |
| 20260506101037 | 50 | 0 | 0.0 | 0.0 | 0.00 | 0.49 | 0.33 | 96 | 1007.9 |
| 20260506100537 | 50 | 0 | 0.0 | 0.0 | 0.00 | 0.49 | 0.33 | 96 | 1007.9 |
| 20260506100049 | 50 | 0 | 0.0 | 0.0 | 0.00 | 0.49 | 0.33 | 96 | 1008.3 |
| 20260506095538 | 50 | 0 | 0.0 | 0.0 | 0.00 | 0.49 | 0.33 | 96 | 1008.2 |
| 20260506095037 | 50 | 0 | 0.0 | 0.0 | 0.00 | 0.49 | 0.33 | 96 | 1008.1 |
| 20260506094548 | 50 | 0 | 0.0 | 0.0 | 0.01 | 0.49 | 0.33 | 96 | 1008.1 |
| 20260506094041 | 50 | 0 | 0.0 | 2.0 | 0.01 | 0.49 | 0.33 | 96 | 1008.3 |
| 20260506093537 | 50 | 0 | 0.0 | 2.0 | 0.01 | 0.49 | 0.33 | 96 | 1008.3 |
| 20260506093105 | 50 | 0 | 0.0 | 2.0 | 0.01 | 0.49 | 0.33 | 96 | 1008.3 |
| 20260506092537 | 50 | 0 | 0.0 | 0.0 | 0.01 | 0.49 | 0.33 | 96 | 1008.4 |
| 20260506092037 | 50 | 0 | 0.0 | 0.0 | 0.01 | 0.49 | 0.33 | 96 | 1008.4 |
| 20260506091547 | 50 | 0 | 0.0 | 1.0 | 0.01 | 0.49 | 0.33 | 96 | 1008.6 |
| 20260506091038 | 50 | 0 | 0.0 | 1.0 | 0.01 | 0.49 | 0.33 | 96 | 1008.5 |
| 20260506090537 | 50 | 0 | 0.0 | 0.0 | 0.01 | 0.49 | 0.33 | 96 | 1008.5 |
| 20260506090049 | 50 | 0 | 0.0 | 0.0 | 0.01 | 0.49 | 0.33 | 96 | 1008.5 |
| 20260506085537 | 50 | 0 | 0.0 | 1.0 | 0.01 | 0.49 | 0.33 | 96 | 1008.6 |
| 20260506085037 | 50 | 0 | 0.0 | 3.0 | 0.01 | 0.49 | 0.33 | 96 | 1008.5 |
| 20260506084548 | 50 | 71 | 1.0 | 3.0 | 0.00 | 0.48 | 0.32 | 96 | 1008.7 |
| 20260506084040 | 50 | 0 | 0.0 | 1.0 | 0.00 | 0.48 | 0.32 | 96 | 1009.4 |
| 20260506083537 | 50 | 0 | 0.0 | 2.0 | 0.00 | 0.48 | 0.32 | 96 | 1008.7 |
| 20260506083045 | 50 | 0 | 0.0 | 2.0 | 0.01 | 0.48 | 0.32 | 96 | 1008.4 |
| 20260506082537 | 50 | 0 | 0.0 | 2.0 | 0.01 | 0.48 | 0.32 | 96 | 1008.3 |
| 20260506082036 | 50 | 298 | 0.0 | 2.0 | 0.02 | 0.48 | 0.32 | 96 | 1008.6 |
| 20260506081545 | 50 | 0 | 0.0 | 0.0 | 0.04 | 0.48 | 0.32 | 96 | 1008.5 |
| 20260506081037 | 50 | 0 | 0.0 | 0.0 | 0.04 | 0.48 | 0.32 | 96 | 1008.2 |
| 20260506080537 | 51 | 0 | 0.0 | 0.0 | 0.04 | 0.48 | 0.32 | 95 | 1008.2 |
| 20260506073059 | 51 | 0 | 0.0 | 2.0 | 0.03 | 0.47 | 0.31 | 95 | 1008.3 |
| 20260506072537 | 51 | 0 | 0.0 | 3.0 | 0.03 | 0.47 | 0.31 | 95 | 1008.4 |
| 20260506072037 | 51 | 248 | 0.0 | 3.0 | 0.01 | 0.45 | 0.29 | 95 | 1008.8 |
| 20260506071544 | 51 | 0 | 0.0 | 1.0 | 0.01 | 0.44 | 0.28 | 95 | 1008.7 |
| 20260506071036 | 51 | 0 | 0.0 | 0.0 | 0.02 | 0.44 | 0.28 | 95 | 1008.3 |
| 20260506070538 | 51 | 0 | 0.0 | 0.0 | 0.02 | 0.44 | 0.28 | 96 | 1008.2 |
| 20260506062035 | 52 | 0 | 0.0 | 1.0 | 0.07 | 0.44 | 0.28 | 95 | 1008.2 |
| 20260506061559 | 52 | 0 | 0.0 | 0.0 | 0.07 | 0.43 | 0.27 | 95 | 1008.7 |
| 20260506061035 | 52 | 0 | 0.0 | 0.0 | 0.07 | 0.42 | 0.26 | 95 | 1008.8 |
| 20260506060535 | 52 | 0 | 0.0 | 0.0 | 0.08 | 0.42 | 0.26 | 95 | 1008.5 |
| 20260506051034 | 52 | 0 | 0.0 | 0.0 | 0.17 | 0.35 | 0.19 | 94 | 1008.6 |
| 20260506050534 | 52 | 0 | 0.0 | 0.0 | 0.17 | 0.34 | 0.18 | 94 | 1008.6 |
| 20260506045034 | 53 | 0 | 0.0 | 3.0 | 0.21 | 0.34 | 0.18 | 94 | 1008.3 |
| 20260506044542 | 53 | 0 | 0.0 | 3.0 | 0.22 | 0.34 | 0.18 | 93 | 1008.7 |
| 20260506044035 | 53 | 309 | 0.0 | 11.0 | 0.22 | 0.34 | 0.18 | 93 | 1008.7 |
| 20260506043535 | 53 | 22 | 2.0 | 11.0 | 0.21 | 0.33 | 0.17 | 93 | 1008.7 |
| 20260506043050 | 53 | 329 | 1.0 | 6.0 | 0.16 | 0.28 | 0.12 | 93 | 1009.0 |
| 20260506042535 | 53 | 0 | 1.0 | 4.0 | 0.13 | 0.25 | 0.09 | 93 | 1008.7 |
| 20260506042035 | 54 | 0 | 0.0 | 3.0 | 0.13 | 0.25 | 0.09 | 93 | 1008.3 |
| 20260506041557 | 54 | 0 | 1.0 | 5.0 | 0.10 | 0.22 | 0.06 | 93 | 1008.4 |
| 20260506041034 | 54 | 13 | 1.0 | 6.0 | 0.06 | 0.18 | 0.02 | 93 | 1008.2 |
| 20260506040538 | 55 | 325 | 2.0 | 8.0 | 0.06 | 0.17 | 0.01 | 93 | 1008.2 |
| 20260506040051 | 55 | 319 | 0.0 | 8.0 | 0.05 | 0.16 | 0.00 | 94 | 1008.0 |
| 20260506035535 | 55 | 333 | 1.0 | 8.0 | 0.03 | 0.14 | 0.14 | 94 | 1007.8 |
| 20260506035035 | 55 | 313 | 0.0 | 2.0 | 0.02 | 0.13 | 0.13 | 94 | 1007.7 |
| 20260506034541 | 55 | 0 | 0.0 | 0.0 | 0.01 | 0.12 | 0.12 | 94 | 1007.4 |
| 20260506034034 | 55 | 0 | 0.0 | 0.0 | 0.01 | 0.12 | 0.12 | 93 | 1007.0 |
| 20260506033536 | 55 | 0 | 0.0 | 0.0 | 0.01 | 0.12 | 0.12 | 93 | 1006.8 |
| 20260506033050 | 55 | 0 | 0.0 | 0.0 | 0.01 | 0.12 | 0.12 | 93 | 1006.8 |
| 20260506032535 | 56 | 0 | 0.0 | 0.0 | 0.01 | 0.12 | 0.12 | 92 | 1006.6 |
| 20260506032036 | 56 | 0 | 0.0 | 0.0 | 0.01 | 0.12 | 0.12 | 92 | 1006.8 |
| 20260506031547 | 57 | 0 | 0.0 | 0.0 | 0.01 | 0.12 | 0.12 | 91 | 1006.8 |
| 20260506031037 | 57 | 0 | 0.0 | 0.0 | 0.01 | 0.12 | 0.12 | 91 | 1006.9 |
| 20260506030538 | 57 | 0 | 0.0 | 0.0 | 0.00 | 0.11 | 0.11 | 90 | 1006.8 |
| 20260506030044 | 57 | 0 | 0.0 | 1.0 | 0.00 | 0.11 | 0.11 | 90 | 1006.8 |
| 20260506025537 | 57 | 0 | 0.0 | 2.0 | 0.00 | 0.11 | 0.11 | 91 | 1006.8 |
| 20260506025037 | 56 | 0 | 0.0 | 2.0 | 0.00 | 0.11 | 0.11 | 92 | 1006.6 |
| 20260506024544 | 56 | 198 | 0.0 | 1.0 | 0.00 | 0.11 | 0.11 | 92 | 1006.5 |
| 20260506024037 | 57 | 0 | 0.0 | 1.0 | 0.00 | 0.11 | 0.11 | 92 | 1006.7 |
| 20260506023537 | 56 | 275 | 0.0 | 2.0 | 0.00 | 0.11 | 0.11 | 92 | 1006.7 |
| 20260506023051 | 57 | 0 | 0.0 | 2.0 | 0.00 | 0.11 | 0.11 | 92 | 1006.8 |
| 20260506022536 | 57 | 0 | 0.0 | 2.0 | 0.00 | 0.11 | 0.11 | 91 | 1006.8 |
| 20260506022036 | 57 | 0 | 0.0 | 0.0 | 0.00 | 0.11 | 0.11 | 91 | 1006.7 |
| 20260506021547 | 57 | 0 | 0.0 | 1.0 | 0.00 | 0.11 | 0.11 | 92 | 1006.6 |
| 20260506021039 | 57 | 0 | 0.0 | 3.0 | 0.00 | 0.11 | 0.11 | 93 | 1006.6 |
| 20260506020536 | 56 | 0 | 0.0 | 3.0 | 0.00 | 0.11 | 0.11 | 94 | 1006.7 |
| 20260506020114 | 55 | 0 | 0.0 | 3.0 | 0.00 | 0.11 | 0.11 | 94 | 1006.4 |
| 20260506015540 | 55 | 0 | 0.0 | 0.0 | 0.00 | 0.11 | 0.11 | 94 | 1006.3 |
| 20260506015036 | 55 | 0 | 0.0 | 0.0 | 0.00 | 0.11 | 0.11 | 94 | 1006.4 |
| 20260506014544 | 55 | 0 | 0.0 | 0.0 | 0.00 | 0.11 | 0.11 | 94 | 1006.5 |
| 20260506014037 | 55 | 0 | 0.0 | 1.0 | 0.00 | 0.11 | 0.11 | 94 | 1006.4 |
| 20260506013537 | 55 | 0 | 0.0 | 1.0 | 0.00 | 0.11 | 0.11 | 94 | 1006.5 |
| 20260506013048 | 55 | 0 | 0.0 | 1.0 | 0.00 | 0.11 | 0.11 | 94 | 1006.4 |
| 20260506012537 | 56 | 0 | 0.0 | 1.0 | 0.00 | 0.11 | 0.11 | 94 | 1006.5 |
| 20260506012036 | 56 | 0 | 0.0 | 1.0 | 0.00 | 0.11 | 0.11 | 94 | 1006.4 |
| 20260506011549 | 56 | 0 | 0.0 | 2.0 | 0.00 | 0.11 | 0.11 | 94 | 1006.4 |
| 20260506011037 | 56 | 0 | 0.0 | 2.0 | 0.00 | 0.11 | 0.11 | 94 | 1006.5 |
| 20260506010539 | 56 | 0 | 0.0 | 2.0 | 0.00 | 0.11 | 0.11 | 94 | 1006.4 |
| 20260506010050 | 56 | 0 | 0.0 | 2.0 | 0.00 | 0.11 | 0.11 | 94 | 1006.5 |
| 20260506005537 | 56 | 0 | 0.0 | 2.0 | 0.00 | 0.11 | 0.11 | 94 | 1006.4 |
| 20260506005036 | 56 | 0 | 0.0 | 1.0 | 0.00 | 0.11 | 0.11 | 94 | 1006.4 |
| 20260506004546 | 56 | 0 | 0.0 | 1.0 | 0.00 | 0.11 | 0.11 | 94 | 1006.3 |
| 20260506004036 | 56 | 0 | 0.0 | 0.0 | 0.00 | 0.11 | 0.11 | 94 | 1006.3 |
| 20260506003536 | 56 | 0 | 0.0 | 0.0 | 0.00 | 0.11 | 0.11 | 94 | 1006.2 |
| 20260506003047 | 56 | 0 | 0.0 | 1.0 | 0.00 | 0.11 | 0.11 | 94 | 1006.1 |
| 20260506002537 | 57 | 0 | 0.0 | 1.0 | 0.00 | 0.11 | 0.11 | 93 | 1005.9 |
| 20260506002036 | 57 | 0 | 0.0 | 0.0 | 0.00 | 0.11 | 0.11 | 93 | 1005.9 |
| 20260506001549 | 57 | 0 | 0.0 | 0.0 | 0.00 | 0.11 | 0.11 | 93 | 1006.0 |
| 20260506001036 | 57 | 0 | 0.0 | 3.0 | 0.00 | 0.11 | 0.11 | 92 | 1006.0 |
| 20260506000536 | 58 | 0 | 0.0 | 3.0 | 0.00 | 0.11 | 0.11 | 92 | 1006.0 |
| 20260506000056 | 58 | 0 | 0.0 | 1.0 | 0.00 | 0.11 | 0.11 | 93 | 1006.0 |
| 20260505235538 | 58 | 0 | 0.0 | 1.0 | 0.00 | 0.11 | 0.11 | 93 | 1005.8 |
| 20260505235039 | 57 | 0 | 0.0 | 1.0 | 0.00 | 0.11 | 0.11 | 94 | 1005.7 |
| 20260505234544 | 57 | 0 | 0.0 | 1.0 | 0.00 | 0.11 | 0.11 | 94 | 1005.6 |
| 20260505234037 | 57 | 0 | 0.0 | 1.0 | 0.00 | 0.11 | 0.11 | 94 | 1005.6 |
| 20260505233536 | 57 | 0 | 0.0 | 1.0 | 0.00 | 0.11 | 0.11 | 94 | 1005.7 |
| 20260505233051 | 57 | 0 | 0.0 | 1.0 | 0.00 | 0.11 | 0.11 | 94 | 1005.6 |
| 20260505232539 | 57 | 0 | 0.0 | 1.0 | 0.00 | 0.11 | 0.11 | 94 | 1005.7 |
| 20260505232037 | 57 | 0 | 0.0 | 0.0 | 0.00 | 0.11 | 0.11 | 94 | 1005.5 |
| 20260505231554 | 57 | 0 | 0.0 | 0.0 | 0.00 | 0.11 | 0.11 | 94 | 1005.4 |
| 20260505231037 | 58 | 0 | 0.0 | 0.0 | 0.00 | 0.11 | 0.11 | 94 | 1005.6 |
| 20260505230536 | 58 | 0 | 0.0 | 1.0 | 0.00 | 0.11 | 0.11 | 94 | 1005.5 |
| 20260505230049 | 58 | 0 | 0.0 | 1.0 | 0.00 | 0.11 | 0.11 | 94 | 1005.4 |
| 20260505225536 | 58 | 0 | 0.0 | 3.0 | 0.00 | 0.11 | 0.11 | 93 | 1005.2 |
| 20260505225037 | 58 | 0 | 0.0 | 3.0 | 0.00 | 0.11 | 0.11 | 93 | 1005.1 |
| 20260505224550 | 59 | 337 | 0.0 | 3.0 | 0.00 | 0.11 | 0.11 | 93 | 1005.1 |
| 20260505224036 | 59 | 0 | 0.0 | 3.0 | 0.00 | 0.11 | 0.11 | 93 | 1005.4 |
| 20260505223536 | 59 | 121 | 0.0 | 3.0 | 0.00 | 0.11 | 0.11 | 93 | 1005.4 |
| 20260505223046 | 59 | 0 | 0.0 | 0.0 | 0.00 | 0.11 | 0.11 | 94 | 1005.8 |
| 20260505222538 | 59 | 0 | 0.0 | 0.0 | 0.00 | 0.11 | 0.11 | 94 | 1005.4 |
| 20260505222042 | 59 | 0 | 0.0 | 0.0 | 0.00 | 0.11 | 0.11 | 94 | 1005.3 |
| 20260505221555 | 59 | 0 | 0.0 | 0.0 | 0.00 | 0.11 | 0.11 | 94 | 1005.4 |
| 20260505221036 | 59 | 0 | 0.0 | 0.0 | 0.00 | 0.11 | 0.11 | 93 | 1005.3 |
| 20260505220536 | 59 | 0 | 0.0 | 0.0 | 0.00 | 0.11 | 0.11 | 93 | 1005.2 |
| 20260505220103 | 59 | 0 | 0.0 | 0.0 | 0.00 | 0.11 | 0.11 | 93 | 1005.0 |
| 20260505215538 | 59 | 0 | 0.0 | 2.0 | 0.01 | 0.11 | 0.11 | 93 | 1005.2 |
| 20260505215036 | 60 | 0 | 0.0 | 2.0 | 0.01 | 0.11 | 0.11 | 92 | 1005.2 |
| 20260505214551 | 60 | 0 | 0.0 | 2.0 | 0.01 | 0.11 | 0.11 | 92 | 1005.3 |
| 20260505214036 | 60 | 0 | 0.0 | 6.0 | 0.01 | 0.11 | 0.11 | 91 | 1005.0 |
| 20260505213536 | 61 | 0 | 0.0 | 6.0 | 0.01 | 0.11 | 0.11 | 89 | 1005.0 |
| 20260505213047 | 60 | 313 | 0.0 | 4.0 | 0.02 | 0.11 | 0.11 | 88 | 1005.1 |
| 20260505212536 | 60 | 150 | 0.0 | 4.0 | 0.03 | 0.11 | 0.11 | 89 | 1005.1 |
| 20260505212037 | 60 | 281 | 0.0 | 3.0 | 0.05 | 0.11 | 0.11 | 90 | 1005.0 |
| 20260505211611 | 59 | 0 | 0.0 | 3.0 | 0.11 | 0.11 | 0.11 | 91 | 1005.0 |
| 20260505211036 | 59 | 0 | 0.0 | 8.0 | 0.11 | 0.11 | 0.11 | 91 | 1004.9 |
| 20260505210536 | 59 | 0 | 2.0 | 8.0 | 0.11 | 0.11 | 0.11 | 90 | 1004.9 |
| 20260505210045 | 59 | 0 | 0.0 | 8.0 | 0.11 | 0.11 | 0.11 | 89 | 1004.6 |
| 20260505205537 | 59 | 38 | 0.0 | 9.0 | 0.10 | 0.10 | 0.10 | 90 | 1004.4 |
| 20260505205037 | 59 | 196 | 1.0 | 9.0 | 0.10 | 0.10 | 0.10 | 90 | 1004.2 |
| 20260505204558 | 59 | 0 | 0.0 | 9.0 | 0.10 | 0.10 | 0.10 | 90 | 1004.1 |
| 20260505204036 | 58 | 0 | 0.0 | 9.0 | 0.10 | 0.10 | 0.10 | 89 | 1004.1 |
| 20260505203537 | 59 | 0 | 3.0 | 12.0 | 0.10 | 0.10 | 0.10 | 87 | 1003.8 |
| 20260505203046 | 59 | 173 | 2.0 | 17.0 | 0.09 | 0.09 | 0.09 | 87 | 1004.4 |
| 20260505202536 | 60 | 182 | 3.0 | 17.0 | 0.08 | 0.08 | 0.08 | 84 | 1004.3 |
| 20260505202037 | 63 | 44 | 7.0 | 17.0 | 0.05 | 0.05 | 0.05 | 78 | 1004.8 |